createdAt,value
2017-02-08T00:00:31.818Z,10.17
2017-02-08T00:01:12.346Z,10.17
2017-02-08T00:01:52.857Z,10.27
2017-02-08T00:02:33.307Z,10.22
2017-02-08T00:03:13.809Z,10.18
2017-02-08T00:03:54.349Z,10.15
2017-02-08T00:04:34.791Z,10.15
2017-02-08T00:05:15.325Z,10.17
2017-02-08T00:05:55.824Z,10.11
2017-02-08T00:06:37.208Z,10.18
2017-02-08T00:07:16.831Z,10.17
2017-02-08T00:07:57.350Z,10.2
2017-02-08T00:08:37.845Z,10.17
2017-02-08T00:09:18.297Z,10.14
2017-02-08T00:09:58.804Z,10.22
2017-02-08T00:10:39.288Z,10.08
2017-02-08T00:11:19.845Z,10.08
2017-02-08T00:12:00.333Z,10.17
2017-02-08T00:12:40.846Z,10.15
2017-02-08T00:13:21.339Z,10.15
2017-02-08T00:14:01.818Z,10.14
2017-02-08T00:14:42.317Z,10.18
2017-02-08T00:15:23.042Z,10.14
2017-02-08T00:16:03.534Z,10.14
2017-02-08T00:16:44.015Z,10.22
2017-02-08T00:17:24.579Z,10.08
2017-02-08T00:18:05.114Z,10.09
2017-02-08T00:18:45.615Z,10.08
2017-02-08T00:19:26.098Z,10.08
2017-02-08T00:20:06.594Z,10.04
2017-02-08T00:20:47.087Z,10.08
2017-02-08T00:21:27.643Z,10.04
2017-02-08T00:22:08.118Z,10.08
2017-02-08T00:22:48.588Z,10.09
2017-02-08T00:23:29.113Z,10.09
2017-02-08T00:24:09.653Z,10.05
2017-02-08T00:24:50.088Z,9.96
2017-02-08T00:25:30.588Z,10.07
2017-02-08T00:26:11.084Z,9.97
2017-02-08T00:26:51.606Z,10.01
2017-02-08T00:27:32.105Z,10.02
2017-02-08T00:28:12.595Z,10.08
2017-02-08T00:28:53.105Z,9.99
2017-02-08T00:29:33.610Z,9.99
2017-02-08T00:30:14.100Z,9.97
2017-02-08T00:30:54.592Z,10.08
2017-02-08T00:31:35.129Z,10.05
2017-02-08T00:32:15.581Z,10.01
2017-02-08T00:32:56.117Z,10.01
2017-02-08T00:33:36.626Z,9.96
2017-02-08T00:34:17.117Z,9.91
2017-02-08T00:34:57.600Z,9.94
2017-02-08T00:35:38.114Z,9.86
2017-02-08T00:36:18.584Z,9.81
2017-02-08T00:36:59.117Z,9.84
2017-02-08T00:37:39.589Z,9.93
2017-02-08T00:38:20.128Z,9.83
2017-02-08T00:39:00.564Z,9.86
2017-02-08T00:39:41.094Z,9.9
2017-02-08T00:40:21.565Z,9.94
2017-02-08T00:41:02.133Z,9.93
2017-02-08T00:41:42.570Z,9.93
2017-02-08T00:42:23.114Z,9.89
2017-02-08T00:43:03.592Z,9.93
2017-02-08T00:43:44.081Z,9.81
2017-02-08T00:44:24.556Z,9.78
2017-02-08T00:45:05.143Z,9.86
2017-02-08T00:45:45.575Z,9.81
2017-02-08T00:46:26.163Z,9.72
2017-02-08T00:47:06.564Z,9.81
2017-02-08T00:47:47.061Z,9.76
2017-02-08T00:48:27.596Z,9.79
2017-02-08T00:49:08.101Z,9.84
2017-02-08T00:49:48.543Z,9.86
2017-02-08T00:50:29.090Z,9.86
2017-02-08T00:51:09.590Z,9.79
2017-02-08T00:51:50.302Z,9.71
2017-02-08T00:52:30.617Z,9.74
2017-02-08T00:53:11.181Z,9.89
2017-02-08T00:53:51.648Z,9.86
2017-02-08T00:54:32.162Z,9.84
2017-02-08T00:55:12.665Z,9.86
2017-02-08T00:55:53.197Z,9.86
2017-02-08T00:56:33.636Z,9.83
2017-02-08T00:57:14.146Z,9.72
2017-02-08T00:57:54.639Z,9.81
2017-02-08T00:58:35.081Z,9.75
2017-02-08T00:59:15.594Z,9.83
2017-02-08T00:59:56.099Z,9.79
2017-02-08T01:00:36.598Z,9.81
2017-02-08T01:01:17.093Z,9.83
2017-02-08T01:01:57.620Z,9.83
2017-02-08T01:02:38.119Z,9.86
2017-02-08T01:03:18.640Z,9.86
2017-02-08T01:05:18.332Z,9.83
2017-02-08T01:05:58.839Z,9.76
2017-02-08T01:06:39.320Z,9.87
2017-02-08T01:07:19.872Z,9.83
2017-02-08T01:08:00.370Z,9.74
2017-02-08T01:08:40.892Z,9.78
2017-02-08T01:09:21.372Z,9.71
2017-02-08T01:10:01.854Z,9.78
2017-02-08T01:10:42.396Z,9.72
2017-02-08T01:11:22.892Z,9.74
2017-02-08T01:12:03.371Z,9.65
2017-02-08T01:12:43.924Z,9.74
2017-02-08T01:13:24.450Z,9.75
2017-02-08T01:14:04.929Z,9.74
2017-02-08T01:14:45.445Z,9.84
2017-02-08T01:15:26.006Z,9.84
2017-02-08T01:16:06.495Z,9.86
2017-02-08T01:16:47.004Z,9.83
2017-02-08T01:17:27.503Z,9.74
2017-02-08T01:18:08.026Z,9.83
2017-02-08T01:18:48.524Z,9.74
2017-02-08T01:19:29.013Z,9.71
2017-02-08T01:20:09.549Z,9.72
2017-02-08T01:20:50.102Z,9.74
2017-02-08T01:21:30.684Z,9.74
2017-02-08T01:22:13.051Z,9.72
2017-02-08T01:22:53.518Z,9.86
2017-02-08T01:23:34.068Z,9.87
2017-02-08T01:24:14.581Z,9.83
2017-02-08T01:24:55.044Z,9.81
2017-02-08T01:25:35.557Z,9.81
2017-02-08T01:26:16.056Z,9.79
2017-02-08T01:26:56.559Z,9.81
2017-02-08T01:27:37.107Z,9.72
2017-02-08T01:28:17.581Z,9.75
2017-02-08T01:28:58.108Z,9.9
2017-02-08T01:29:38.620Z,9.79
2017-02-08T01:30:19.119Z,9.78
2017-02-08T01:30:59.787Z,9.84
2017-02-08T01:31:40.282Z,9.93
2017-02-08T01:32:20.790Z,9.79
2017-02-08T01:33:01.320Z,9.81
2017-02-08T01:33:41.782Z,9.86
2017-02-08T01:34:22.275Z,9.79
2017-02-08T01:35:02.823Z,9.86
2017-02-08T01:35:43.333Z,9.78
2017-02-08T01:36:23.899Z,9.87
2017-02-08T01:37:04.439Z,9.96
2017-02-08T01:37:44.996Z,9.94
2017-02-08T01:38:25.531Z,9.96
2017-02-08T01:39:05.989Z,9.91
2017-02-08T01:39:46.495Z,9.97
2017-02-08T01:40:27.016Z,10.04
2017-02-08T01:41:07.549Z,9.97
2017-02-08T01:41:48.146Z,9.97
2017-02-08T01:42:28.616Z,9.99
2017-02-08T01:43:09.161Z,9.97
2017-02-08T01:43:49.664Z,9.79
2017-02-08T01:44:30.215Z,9.89
2017-02-08T01:45:10.660Z,9.81
2017-02-08T01:45:51.165Z,9.89
2017-02-08T01:46:31.665Z,9.9
2017-02-08T01:47:13.992Z,9.97
2017-02-08T01:47:54.497Z,9.94
2017-02-08T01:48:34.960Z,10.01
2017-02-08T01:49:15.507Z,9.79
2017-02-08T01:49:55.991Z,9.74
2017-02-08T01:50:36.507Z,9.72
2017-02-08T01:51:17.036Z,9.84
2017-02-08T01:51:57.550Z,9.76
2017-02-08T01:52:38.145Z,9.91
2017-02-08T01:53:18.615Z,9.84
2017-02-08T01:53:59.177Z,9.83
2017-02-08T01:54:39.711Z,9.83
2017-02-08T01:55:20.209Z,9.86
2017-02-08T01:56:00.753Z,9.83
2017-02-08T01:56:41.247Z,9.89
2017-02-08T01:57:21.808Z,9.93
2017-02-08T01:58:02.329Z,9.94
2017-02-08T01:58:42.810Z,9.94
2017-02-08T01:59:23.324Z,9.96
2017-02-08T02:00:03.842Z,9.89
2017-02-08T02:00:44.357Z,9.89
2017-02-08T02:01:24.888Z,9.75
2017-02-08T02:02:05.398Z,9.84
2017-02-08T02:02:45.909Z,9.86
2017-02-08T02:03:26.453Z,9.89
2017-02-08T02:04:06.973Z,9.9
2017-02-08T02:04:47.508Z,9.89
2017-02-08T02:05:28.003Z,9.86
2017-02-08T02:06:08.511Z,9.75
2017-02-08T02:06:49.005Z,9.83
2017-02-08T02:07:29.517Z,9.91
2017-02-08T02:08:10.031Z,9.79
2017-02-08T02:08:50.522Z,9.87
2017-02-08T02:09:31.034Z,9.9
2017-02-08T02:10:11.530Z,9.84
2017-02-08T02:10:52.061Z,9.93
2017-02-08T02:11:32.518Z,9.96
2017-02-08T02:12:13.020Z,9.87
2017-02-08T02:12:53.536Z,9.84
2017-02-08T02:13:36.049Z,9.75
2017-02-08T02:14:16.536Z,9.69
2017-02-08T02:14:57.056Z,9.78
2017-02-08T02:15:37.549Z,9.79
2017-02-08T02:16:18.067Z,9.9
2017-02-08T02:16:58.531Z,9.69
2017-02-08T02:17:39.078Z,9.84
2017-02-08T02:18:19.576Z,9.74
2017-02-08T02:19:00.106Z,9.76
2017-02-08T02:19:40.591Z,9.68
2017-02-08T02:20:21.114Z,9.72
2017-02-08T02:21:01.640Z,9.81
2017-02-08T02:21:42.171Z,9.75
2017-02-08T02:22:22.672Z,9.76
2017-02-08T02:23:03.225Z,9.89
2017-02-08T02:23:43.718Z,9.93
2017-02-08T02:24:24.233Z,9.94
2017-02-08T02:25:06.321Z,10.01
2017-02-08T02:25:46.815Z,10.04
2017-02-08T02:26:27.345Z,9.94
2017-02-08T02:27:07.880Z,9.99
2017-02-08T02:27:48.371Z,9.94
2017-02-08T02:28:28.841Z,9.91
2017-02-08T02:29:09.351Z,10.04
2017-02-08T02:29:49.965Z,9.94
2017-02-08T02:30:30.470Z,9.96
2017-02-08T02:31:10.987Z,9.97
2017-02-08T02:31:51.492Z,9.99
2017-02-08T02:32:32.070Z,9.93
2017-02-08T02:33:12.542Z,9.99
2017-02-08T02:33:53.047Z,9.96
2017-02-08T02:34:33.581Z,9.96
2017-02-08T02:35:14.105Z,9.96
2017-02-08T02:35:54.627Z,9.94
2017-02-08T02:36:35.131Z,9.91
2017-02-08T02:37:15.657Z,9.93
2017-02-08T02:37:56.170Z,9.89
2017-02-08T02:38:36.720Z,9.87
2017-02-08T02:39:17.258Z,9.97
2017-02-08T02:39:57.761Z,9.89
2017-02-08T02:40:38.242Z,9.75
2017-02-08T02:41:18.757Z,9.79
2017-02-08T02:41:59.215Z,9.76
2017-02-08T02:42:39.738Z,9.84
2017-02-08T02:43:20.267Z,9.74
2017-02-08T02:44:00.778Z,9.79
2017-02-08T02:44:41.306Z,9.76
2017-02-08T02:45:21.799Z,9.83
2017-02-08T02:46:02.363Z,9.87
2017-02-08T02:46:42.827Z,9.81
2017-02-08T02:47:23.363Z,9.81
2017-02-08T02:48:03.833Z,9.79
2017-02-08T02:48:44.356Z,9.84
2017-02-08T02:49:24.905Z,9.86
2017-02-08T02:50:05.387Z,9.94
2017-02-08T02:50:45.919Z,9.81
2017-02-08T02:51:26.437Z,9.79
2017-02-08T02:52:06.951Z,9.83
2017-02-08T02:52:47.471Z,9.89
2017-02-08T02:53:27.977Z,9.87
2017-02-08T02:54:08.503Z,9.89
2017-02-08T02:54:49.026Z,9.89
2017-02-08T02:55:29.548Z,9.84
2017-02-08T02:56:10.061Z,9.78
2017-02-08T02:56:50.602Z,9.87
2017-02-08T02:57:31.111Z,9.81
2017-02-08T02:58:11.636Z,9.87
2017-02-08T02:58:52.090Z,9.93
2017-02-08T02:59:32.613Z,9.84
2017-02-08T03:00:13.163Z,9.78
2017-02-08T03:00:53.658Z,9.87
2017-02-08T03:01:34.167Z,9.99
2017-02-08T03:02:14.656Z,9.94
2017-02-08T03:02:55.179Z,9.96
2017-02-08T03:03:35.760Z,9.9
2017-02-08T03:04:16.261Z,9.79
2017-02-08T03:04:56.813Z,9.74
2017-02-08T03:05:37.293Z,9.83
2017-02-08T03:06:17.817Z,9.93
2017-02-08T03:06:58.305Z,9.86
2017-02-08T03:07:38.906Z,9.83
2017-02-08T03:08:19.407Z,9.86
2017-02-08T03:08:59.900Z,9.84
2017-02-08T03:09:40.432Z,9.76
2017-02-08T03:10:21.065Z,9.74
2017-02-08T03:11:01.557Z,9.61
2017-02-08T03:11:42.109Z,9.65
2017-02-08T03:12:22.613Z,9.71
2017-02-08T03:13:03.128Z,9.78
2017-02-08T03:13:43.656Z,9.75
2017-02-08T03:14:24.172Z,9.75
2017-02-08T03:15:04.690Z,9.76
2017-02-08T03:15:45.252Z,9.87
2017-02-08T03:16:27.467Z,9.83
2017-02-08T03:17:07.959Z,9.86
2017-02-08T03:17:48.449Z,9.86
2017-02-08T03:18:28.982Z,9.9
2017-02-08T03:19:09.457Z,9.87
2017-02-08T03:19:49.981Z,9.71
2017-02-08T03:20:30.488Z,9.84
2017-02-08T03:21:10.996Z,9.75
2017-02-08T03:21:51.536Z,9.83
2017-02-08T03:22:32.108Z,9.75
2017-02-08T03:23:14.322Z,9.89
2017-02-08T03:23:54.850Z,9.74
2017-02-08T03:24:35.346Z,9.66
2017-02-08T03:25:15.837Z,9.64
2017-02-08T03:25:56.357Z,9.66
2017-02-08T03:26:36.838Z,9.61
2017-02-08T03:27:17.353Z,9.76
2017-02-08T03:27:57.850Z,9.58
2017-02-08T03:28:38.410Z,9.69
2017-02-08T03:29:18.961Z,9.29
2017-02-08T03:29:59.518Z,9.14
2017-02-08T03:30:40.021Z,9.32
2017-02-08T03:31:20.541Z,9.29
2017-02-08T03:32:01.165Z,9.31
2017-02-08T03:33:39.046Z,9.38
2017-02-08T03:34:19.559Z,9.42
2017-02-08T03:35:00.056Z,9.51
2017-02-08T03:35:40.550Z,9.47
2017-02-08T03:36:21.041Z,9.38
2017-02-08T03:37:01.548Z,9.54
2017-02-08T03:37:42.028Z,9.54
2017-02-08T03:38:22.503Z,9.54
2017-02-08T03:39:03.036Z,9.24
2017-02-08T03:39:43.578Z,9.29
2017-02-08T03:40:24.041Z,9.4
2017-02-08T03:41:04.526Z,9.36
2017-02-08T03:41:45.033Z,9.36
2017-02-08T03:42:25.548Z,9.21
2017-02-08T03:43:06.079Z,9.23
2017-02-08T03:43:46.582Z,9.4
2017-02-08T03:44:27.172Z,9.32
2017-02-08T03:45:07.685Z,9.43
2017-02-08T03:45:48.188Z,9.36
2017-02-08T03:46:28.691Z,9.36
2017-02-08T03:47:09.153Z,9.54
2017-02-08T03:47:49.638Z,9.53
2017-02-08T03:48:30.161Z,9.38
2017-02-08T03:49:10.643Z,9.5
2017-02-08T03:49:51.123Z,9.53
2017-02-08T03:50:31.636Z,9.42
2017-02-08T03:51:12.118Z,9.39
2017-02-08T03:51:52.569Z,9.36
2017-02-08T03:52:33.085Z,9.4
2017-02-08T03:53:13.587Z,9.46
2017-02-08T03:53:54.077Z,9.51
2017-02-08T03:54:34.602Z,9.51
2017-02-08T03:55:15.072Z,9.36
2017-02-08T03:55:55.569Z,9.33
2017-02-08T03:56:36.075Z,9.38
2017-02-08T03:57:16.565Z,9.53
2017-02-08T03:57:57.045Z,9.39
2017-02-08T03:58:37.552Z,9.38
2017-02-08T03:59:18.067Z,9.35
2017-02-08T03:59:58.549Z,9.38
2017-02-08T04:00:39.062Z,9.46
2017-02-08T04:01:19.555Z,9.23
2017-02-08T04:02:00.093Z,9.11
2017-02-08T04:02:40.609Z,9.32
2017-02-08T04:03:21.092Z,9.46
2017-02-08T04:04:01.576Z,9.39
2017-02-08T04:04:42.066Z,9.46
2017-02-08T04:05:22.556Z,9.39
2017-02-08T04:06:03.094Z,9.36
2017-02-08T04:06:43.599Z,9.48
2017-02-08T04:07:24.056Z,9.51
2017-02-08T04:08:04.557Z,9.29
2017-02-08T04:08:45.031Z,9.36
2017-02-08T04:09:25.519Z,9.24
2017-02-08T04:10:06.032Z,9.31
2017-02-08T04:10:46.493Z,9.24
2017-02-08T04:11:27.014Z,9.26
2017-02-08T04:12:07.461Z,9.35
2017-02-08T04:12:47.948Z,9.36
2017-02-08T04:13:28.426Z,9.43
2017-02-08T04:14:08.916Z,9.39
2017-02-08T04:14:49.437Z,9.42
2017-02-08T04:15:29.922Z,9.21
2017-02-08T04:16:10.402Z,9.26
2017-02-08T04:16:50.929Z,9.26
2017-02-08T04:17:31.423Z,9.39
2017-02-08T04:18:11.908Z,9.31
2017-02-08T04:18:52.400Z,9.31
2017-02-08T04:19:32.976Z,9.1
2017-02-08T04:20:13.445Z,9.04
2017-02-08T04:20:53.956Z,9.1
2017-02-08T04:21:34.503Z,9.21
2017-02-08T04:22:14.940Z,9.15
2017-02-08T04:22:55.442Z,9.1
2017-02-08T04:23:35.939Z,9.2
2017-02-08T04:24:16.485Z,9.2
2017-02-08T04:24:57.014Z,9.29
2017-02-08T04:25:37.507Z,9.36
2017-02-08T04:26:17.961Z,9.26
2017-02-08T04:26:58.422Z,9.29
2017-02-08T04:27:38.977Z,9.36
2017-02-08T04:28:19.470Z,9.35
2017-02-08T04:28:59.902Z,9.28
2017-02-08T04:29:40.452Z,9.02
2017-02-08T04:30:20.921Z,8.94
2017-02-08T04:31:01.429Z,8.96
2017-02-08T04:31:41.914Z,8.96
2017-02-08T04:32:22.377Z,9.2
2017-02-08T04:33:02.871Z,9.1
2017-02-08T04:33:43.367Z,9.4
2017-02-08T04:34:23.894Z,9.39
2017-02-08T04:35:04.378Z,9.18
2017-02-08T04:35:44.853Z,9.21
2017-02-08T04:36:25.292Z,9.17
2017-02-08T04:37:05.812Z,9.21
2017-02-08T04:37:46.291Z,9.14
2017-02-08T04:38:26.843Z,8.98
2017-02-08T04:39:07.339Z,9.11
2017-02-08T04:39:47.847Z,9.24
2017-02-08T04:40:28.334Z,9.1
2017-02-08T04:41:08.850Z,8.71
2017-02-08T04:41:49.340Z,8.89
2017-02-08T04:42:29.815Z,8.86
2017-02-08T04:43:10.345Z,8.95
2017-02-08T04:43:50.835Z,8.86
2017-02-08T04:44:31.313Z,8.77
2017-02-08T04:45:11.856Z,8.68
2017-02-08T04:45:52.340Z,8.8
2017-02-08T04:46:32.811Z,8.76
2017-02-08T04:47:13.305Z,8.84
2017-02-08T04:47:53.786Z,8.79
2017-02-08T04:48:34.252Z,8.95
2017-02-08T04:49:14.740Z,8.95
2017-02-08T04:49:55.229Z,9.1
2017-02-08T04:50:35.717Z,8.99
2017-02-08T04:51:16.249Z,9.01
2017-02-08T04:51:56.746Z,8.61
2017-02-08T04:52:37.392Z,8.55
2017-02-08T04:53:17.897Z,8.56
2017-02-08T04:53:58.420Z,8.34
2017-02-08T04:54:38.948Z,8.53
2017-02-08T04:55:19.445Z,8.52
2017-02-08T04:55:59.849Z,8.34
2017-02-08T04:56:40.368Z,8.38
2017-02-08T04:57:20.840Z,8.4
2017-02-08T04:58:01.338Z,8.48
2017-02-08T04:58:41.845Z,8.61
2017-02-08T04:59:22.329Z,8.76
2017-02-08T05:00:02.850Z,8.63
2017-02-08T05:00:43.284Z,8.38
2017-02-08T05:01:23.766Z,8.48
2017-02-08T05:02:04.253Z,8.61
2017-02-08T05:02:44.757Z,8.73
2017-02-08T05:03:25.270Z,8.84
2017-02-08T05:04:05.740Z,8.58
2017-02-08T05:04:46.230Z,8.44
2017-02-08T05:05:26.733Z,8.28
2017-02-08T05:06:07.227Z,8.23
2017-02-08T05:06:47.725Z,8.44
2017-02-08T05:07:28.261Z,8.53
2017-02-08T05:08:08.686Z,8.55
2017-02-08T05:08:49.183Z,8.62
2017-02-08T05:09:29.693Z,8.74
2017-02-08T05:10:10.229Z,8.79
2017-02-08T05:10:50.682Z,8.91
2017-02-08T05:11:31.156Z,8.68
2017-02-08T05:12:11.625Z,8.37
2017-02-08T05:12:52.172Z,8.29
2017-02-08T05:13:32.680Z,8.34
2017-02-08T05:14:13.164Z,8.5
2017-02-08T05:14:53.678Z,8.47
2017-02-08T05:15:34.144Z,8.55
2017-02-08T05:16:14.615Z,8.76
2017-02-08T05:16:55.080Z,8.74
2017-02-08T05:17:35.597Z,8.81
2017-02-08T05:18:16.089Z,8.84
2017-02-08T05:18:56.586Z,8.92
2017-02-08T05:19:37.055Z,8.83
2017-02-08T05:20:17.593Z,8.77
2017-02-08T05:20:58.076Z,8.86
2017-02-08T05:21:38.589Z,8.73
2017-02-08T05:22:19.066Z,8.63
2017-02-08T05:22:59.582Z,8.62
2017-02-08T05:23:40.095Z,8.71
2017-02-08T05:24:20.578Z,8.73
2017-02-08T05:25:01.171Z,8.8
2017-02-08T05:25:41.710Z,8.77
2017-02-08T05:26:22.182Z,8.79
2017-02-08T05:27:02.688Z,8.55
2017-02-08T05:27:43.166Z,8.7
2017-02-08T05:28:23.647Z,8.56
2017-02-08T05:29:04.180Z,8.68
2017-02-08T05:29:44.641Z,8.74
2017-02-08T05:30:25.111Z,8.83
2017-02-08T05:31:05.602Z,8.83
2017-02-08T05:31:46.093Z,8.96
2017-02-08T05:32:26.615Z,8.71
2017-02-08T05:33:07.149Z,8.47
2017-02-08T05:33:47.664Z,8.62
2017-02-08T05:34:28.204Z,8.73
2017-02-08T05:35:08.698Z,8.56
2017-02-08T05:35:49.185Z,8.38
2017-02-08T05:36:29.641Z,8.71
2017-02-08T05:37:10.183Z,8.65
2017-02-08T05:37:50.719Z,8.76
2017-02-08T05:38:31.219Z,8.58
2017-02-08T05:39:11.706Z,8.74
2017-02-08T05:39:52.190Z,8.79
2017-02-08T05:40:32.649Z,8.86
2017-02-08T05:41:13.195Z,8.8
2017-02-08T05:41:53.647Z,8.76
2017-02-08T05:42:34.291Z,8.66
2017-02-08T05:43:14.757Z,8.62
2017-02-08T05:43:55.252Z,8.68
2017-02-08T05:44:35.761Z,8.73
2017-02-08T05:45:16.214Z,8.47
2017-02-08T05:45:57.268Z,8.7
2017-02-08T05:46:37.471Z,8.48
2017-02-08T05:47:18.038Z,8.41
2017-02-08T05:49:11.051Z,8.52
2017-02-08T05:49:51.553Z,8.65
2017-02-08T05:50:32.041Z,8.5
2017-02-08T05:51:12.571Z,8.4
2017-02-08T05:51:53.025Z,8.22
2017-02-08T05:52:33.520Z,8.08
2017-02-08T05:53:14.030Z,8.04
2017-02-08T05:53:54.525Z,8.11
2017-02-08T05:54:35.042Z,8
2017-02-08T05:55:15.487Z,8.01
2017-02-08T05:55:56.024Z,8.1
2017-02-08T05:56:36.464Z,8.26
2017-02-08T05:57:17.011Z,8.43
2017-02-08T05:57:57.489Z,8.47
2017-02-08T05:58:37.977Z,8.47
2017-02-08T05:59:18.468Z,8.53
2017-02-08T05:59:58.976Z,8.68
2017-02-08T06:00:39.451Z,8.73
2017-02-08T06:01:19.935Z,8.73
2017-02-08T06:02:00.393Z,8.84
2017-02-08T06:02:40.907Z,8.76
2017-02-08T06:03:21.379Z,8.71
2017-02-08T06:04:01.907Z,8.73
2017-02-08T06:04:42.419Z,8.73
2017-02-08T06:05:22.928Z,8.86
2017-02-08T06:06:03.467Z,8.86
2017-02-08T06:06:43.953Z,8.83
2017-02-08T06:07:24.491Z,8.41
2017-02-08T06:08:04.962Z,8.58
2017-02-08T06:08:45.464Z,8.43
2017-02-08T06:09:25.989Z,8.37
2017-02-08T06:10:06.459Z,8.28
2017-02-08T06:10:46.980Z,8.43
2017-02-08T06:11:27.449Z,8.47
2017-02-08T06:12:07.972Z,8.5
2017-02-08T06:12:48.439Z,8.61
2017-02-08T06:13:28.959Z,8.58
2017-02-08T06:14:09.424Z,8.65
2017-02-08T06:14:49.951Z,8.77
2017-02-08T06:15:30.414Z,8.86
2017-02-08T06:16:10.910Z,8.86
2017-02-08T06:16:51.429Z,8.92
2017-02-08T06:17:31.948Z,8.91
2017-02-08T06:18:12.423Z,8.63
2017-02-08T06:18:52.904Z,8.25
2017-02-08T06:19:33.403Z,8.26
2017-02-08T06:20:13.888Z,8.3
2017-02-08T06:20:54.390Z,8.41
2017-02-08T06:21:34.896Z,8.56
2017-02-08T06:22:15.408Z,8.62
2017-02-08T06:22:55.860Z,8.2
2017-02-08T06:23:36.371Z,8.07
2017-02-08T06:24:16.852Z,8.26
2017-02-08T06:24:57.288Z,8.25
2017-02-08T06:25:37.839Z,8.18
2017-02-08T06:26:18.304Z,8.4
2017-02-08T06:26:58.796Z,8.22
2017-02-08T06:27:39.334Z,8.1
2017-02-08T06:28:19.828Z,8.07
2017-02-08T06:29:00.296Z,8.11
2017-02-08T06:29:40.788Z,8.15
2017-02-08T06:30:21.306Z,8.28
2017-02-08T06:31:01.821Z,8.33
2017-02-08T06:31:42.349Z,8.19
2017-02-08T06:32:22.818Z,8.33
2017-02-08T06:33:03.330Z,8.38
2017-02-08T06:33:43.826Z,8.4
2017-02-08T06:34:24.323Z,8.56
2017-02-08T06:35:04.777Z,8.44
2017-02-08T06:35:45.441Z,8.41
2017-02-08T06:36:26.116Z,8.71
2017-02-08T06:37:06.695Z,8.38
2017-02-08T06:37:47.195Z,8.48
2017-02-08T06:38:27.783Z,8.95
2017-02-08T06:39:08.301Z,8.79
2017-02-08T06:39:48.816Z,9.1
2017-02-08T06:40:29.364Z,8.96
2017-02-08T06:41:10.178Z,8.86
2017-02-08T06:41:50.726Z,9.23
2017-02-08T06:42:31.246Z,9.24
2017-02-08T06:43:11.761Z,9.04
2017-02-08T06:43:52.453Z,9.24
2017-02-08T06:44:32.965Z,9.17
2017-02-08T06:45:15.052Z,9.24
2017-02-08T06:45:55.691Z,9.21
2017-02-08T06:46:36.387Z,9.39
2017-02-08T06:47:17.097Z,9.57
2017-02-08T06:47:57.547Z,9.32
2017-02-08T06:48:38.184Z,9.28
2017-02-08T06:49:18.680Z,9.36
2017-02-08T06:49:59.172Z,9.46
2017-02-08T06:50:39.689Z,9.39
2017-02-08T06:51:20.209Z,9.53
2017-02-08T06:52:00.689Z,9.08
2017-02-08T06:52:41.177Z,9.17
2017-02-08T06:53:21.682Z,9.01
2017-02-08T06:54:02.233Z,9.02
2017-02-08T06:54:42.754Z,9.14
2017-02-08T06:55:23.247Z,9.08
2017-02-08T06:56:04.260Z,9.31
2017-02-08T06:56:44.769Z,9.54
2017-02-08T06:57:25.837Z,9.5
2017-02-08T06:58:06.249Z,9.42
2017-02-08T06:58:46.990Z,8.68
2017-02-08T06:59:27.541Z,8.79
2017-02-08T07:00:08.269Z,8.89
2017-02-08T07:00:49.297Z,8.86
2017-02-08T07:01:29.822Z,8.52
2017-02-08T07:02:10.336Z,8.59
2017-02-08T07:02:50.850Z,8.58
2017-02-08T07:03:31.391Z,8.66
2017-02-08T07:04:11.888Z,8.77
2017-02-08T07:04:52.382Z,8.92
2017-02-08T07:05:32.941Z,8.8
2017-02-08T07:06:13.444Z,8.87
2017-02-08T07:06:53.973Z,8.94
2017-02-08T07:07:34.467Z,9.1
2017-02-08T07:08:14.998Z,9.15
2017-02-08T07:08:55.502Z,9.28
2017-02-08T07:09:36.009Z,8.84
2017-02-08T07:10:16.499Z,8.95
2017-02-08T07:10:57.025Z,9.35
2017-02-08T07:11:37.549Z,8.83
2017-02-08T07:12:18.010Z,8.81
2017-02-08T07:12:59.211Z,9.65
2017-02-08T07:13:40.008Z,9.53
2017-02-08T07:14:20.764Z,9.08
2017-02-08T07:15:02.554Z,8.81
2017-02-08T07:15:43.148Z,9.42
2017-02-08T07:16:23.813Z,8.98
2017-02-08T07:17:04.335Z,9.66
2017-02-08T07:17:44.799Z,9.66
2017-02-08T07:18:25.298Z,9.61
2017-02-08T07:19:05.843Z,9.96
2017-02-08T07:19:46.342Z,9.94
2017-02-08T07:20:26.835Z,9.68
2017-02-08T07:21:07.329Z,9.48
2017-02-08T07:21:47.912Z,9.86
2017-02-08T07:22:28.733Z,9.83
2017-02-08T07:23:09.288Z,9.51
2017-02-08T07:23:49.728Z,8.99
2017-02-08T07:24:30.250Z,9.11
2017-02-08T07:25:10.717Z,8.96
2017-02-08T07:25:51.181Z,8.68
2017-02-08T07:26:32.416Z,8.83
2017-02-08T07:27:13.698Z,9.46
2017-02-08T07:27:54.620Z,9.02
2017-02-08T07:28:35.056Z,8.96
2017-02-08T07:29:15.867Z,9.02
2017-02-08T07:29:56.516Z,8.76
2017-02-08T07:30:37.007Z,8.43
2017-02-08T07:31:17.510Z,8.86
2017-02-08T07:31:58.030Z,9.04
2017-02-08T07:32:38.527Z,9.11
2017-02-08T07:33:19.039Z,8.96
2017-02-08T07:33:59.546Z,9.04
2017-02-08T07:34:40.029Z,9.38
2017-02-08T07:35:20.512Z,9.28
2017-02-08T07:36:01.029Z,9.01
2017-02-08T07:36:41.547Z,9.18
2017-02-08T07:37:22.598Z,9.11
2017-02-08T07:38:03.136Z,8.74
2017-02-08T07:38:43.584Z,8.63
2017-02-08T07:39:24.113Z,8.84
2017-02-08T07:40:04.664Z,8.8
2017-02-08T07:40:45.068Z,8.94
2017-02-08T07:41:25.591Z,8.99
2017-02-08T07:42:06.069Z,9.28
2017-02-08T07:42:46.578Z,9.47
2017-02-08T07:43:27.070Z,9.33
2017-02-08T07:44:07.549Z,9.28
2017-02-08T07:44:48.043Z,9.38
2017-02-08T07:45:28.819Z,9.38
2017-02-08T07:46:09.372Z,9.23
2017-02-08T07:46:49.822Z,8.94
2017-02-08T07:47:30.279Z,8.77
2017-02-08T07:48:10.782Z,8.84
2017-02-08T07:48:51.362Z,8.62
2017-02-08T07:49:32.970Z,8.62
2017-02-08T07:50:12.428Z,8.68
2017-02-08T07:50:52.896Z,8.95
2017-02-08T07:51:33.447Z,9.18
2017-02-08T07:52:13.904Z,9.15
2017-02-08T07:52:54.447Z,8.68
2017-02-08T07:53:34.899Z,8.8
2017-02-08T07:54:15.416Z,8.95
2017-02-08T07:54:55.920Z,8.62
2017-02-08T07:55:36.518Z,8.99
2017-02-08T07:56:17.022Z,8.89
2017-02-08T07:56:57.563Z,8.65
2017-02-08T07:57:38.109Z,8.33
2017-02-08T07:58:18.841Z,8.15
2017-02-08T07:58:59.361Z,8.41
2017-02-08T07:59:39.805Z,8.7
2017-02-08T08:00:20.503Z,8.3
2017-02-08T08:01:00.805Z,8.37
2017-02-08T08:01:41.292Z,8.38
2017-02-08T08:02:21.814Z,8.7
2017-02-08T08:03:02.292Z,8.83
2017-02-08T08:03:42.808Z,9.01
2017-02-08T08:04:23.606Z,8.84
2017-02-08T08:05:04.197Z,8.96
2017-02-08T08:05:44.665Z,8.94
2017-02-08T08:06:25.348Z,9.11
2017-02-08T08:07:05.834Z,8.65
2017-02-08T08:07:46.309Z,8.44
2017-02-08T08:08:26.810Z,8.71
2017-02-08T08:09:07.300Z,8.95
2017-02-08T08:09:47.767Z,8.76
2017-02-08T08:10:28.302Z,8.92
2017-02-08T08:11:08.815Z,9.35
2017-02-08T08:11:49.328Z,9.51
2017-02-08T08:12:29.828Z,9.79
2017-02-08T08:13:10.304Z,9.71
2017-02-08T08:13:50.848Z,9.89
2017-02-08T08:14:31.394Z,9.39
2017-02-08T08:15:12.202Z,9.81
2017-02-08T08:15:52.804Z,9.83
2017-02-08T08:16:33.347Z,9.84
2017-02-08T08:17:13.992Z,9.75
2017-02-08T08:17:54.588Z,9.65
2017-02-08T08:18:35.054Z,9.68
2017-02-08T08:19:15.553Z,9.36
2017-02-08T08:19:56.037Z,8.84
2017-02-08T08:20:36.515Z,9.02
2017-02-08T08:21:17.024Z,9.35
2017-02-08T08:21:57.521Z,8.84
2017-02-08T08:22:37.996Z,8.96
2017-02-08T08:23:18.486Z,8.56
2017-02-08T08:23:58.990Z,8.87
2017-02-08T08:24:39.495Z,8.79
2017-02-08T08:25:19.990Z,8.95
2017-02-08T08:26:00.490Z,9.33
2017-02-08T08:26:41.004Z,9.26
2017-02-08T08:27:21.575Z,9.05
2017-02-08T08:28:02.028Z,9.01
2017-02-08T08:28:42.498Z,9.2
2017-02-08T08:29:23.008Z,9.35
2017-02-08T08:30:03.668Z,8.98
2017-02-08T08:30:44.143Z,9.17
2017-02-08T08:31:24.594Z,9.47
2017-02-08T08:32:05.128Z,9.36
2017-02-08T08:32:45.603Z,9.33
2017-02-08T08:33:26.074Z,9.32
2017-02-08T08:34:06.589Z,9.18
2017-02-08T08:34:47.106Z,9.26
2017-02-08T08:35:27.616Z,9.46
2017-02-08T08:36:08.108Z,9.17
2017-02-08T08:36:48.591Z,9.35
2017-02-08T08:37:29.119Z,9.04
2017-02-08T08:38:09.589Z,8.95
2017-02-08T08:38:50.088Z,8.63
2017-02-08T08:39:30.591Z,8.77
2017-02-08T08:40:11.112Z,9.43
2017-02-08T08:40:51.560Z,9.75
2017-02-08T08:41:32.054Z,9.83
2017-02-08T08:42:12.591Z,9.76
2017-02-08T08:42:53.033Z,9.83
2017-02-08T08:43:33.522Z,9.64
2017-02-08T08:44:14.060Z,9.18
2017-02-08T08:44:54.544Z,9.29
2017-02-08T08:45:35.089Z,9.76
2017-02-08T08:46:15.516Z,9.97
2017-02-08T08:46:56.044Z,9.69
2017-02-08T08:47:36.506Z,9.35
2017-02-08T08:48:16.976Z,9.24
2017-02-08T08:48:57.507Z,9.38
2017-02-08T08:49:38.002Z,9.56
2017-02-08T08:50:18.493Z,9.74
2017-02-08T08:50:58.961Z,9.5
2017-02-08T08:51:39.458Z,8.84
2017-02-08T08:52:20.023Z,8.65
2017-02-08T08:53:00.499Z,9.1
2017-02-08T08:53:40.983Z,9.31
2017-02-08T08:54:21.469Z,9.32
2017-02-08T08:55:01.999Z,9.86
2017-02-08T08:55:42.497Z,10.04
2017-02-08T08:56:22.945Z,10.2
2017-02-08T08:57:03.455Z,10.26
2017-02-08T08:57:43.909Z,10.09
2017-02-08T08:58:24.450Z,9.78
2017-02-08T08:59:04.943Z,9.84
2017-02-08T08:59:45.453Z,9.81
2017-02-08T09:00:25.962Z,9.31
2017-02-08T09:01:06.546Z,9.24
2017-02-08T09:01:47.007Z,9.39
2017-02-08T09:02:27.491Z,9.4
2017-02-08T09:03:08.003Z,9.71